More Magic — 2DWJ4 — position and weather

sailwx.info

Track history (hours):
 
Tides and Currents Weather Stations Pressure Air Temp Water Temp Dewpoint Dewpoint Depression Visibility Wind Speed Wind Dir Waves Ship Positions

More Magic

Last reported at 2014-Sep-01 18:22 UTC. Time now 2014-Sep-21 20:14 UTC.
Position N 43°41' W 069°56'.
Warning: this ship's position is 20 days out of date.

Length 20 m.

Type: Sailing vessel. MMSI: 235082545.

Date/timePositionNaut miles runAvg speedWind from/ knotsBaromVisibWave heightAir tempDewpointWater temp
2014-Sep-01 18:22N 43°41' W 069°56'7 8.5
2014-Sep-01 17:33N 43°39' W 070°05'5 0.1
2014-Aug-31 02:04N 43°37' W 070°12'  
2014-Aug-28 07:22N 41°40' W 070°41'14 7.3
2014-Aug-28 05:31N 41°31' W 070°54'7 7.0
2014-Aug-28 04:33N 41°27' W 071°02'8 7.6
2014-Aug-28 03:33N 41°26' W 071°12'8 7.6
2014-Aug-28 02:33N 41°26' W 071°22'4 0.6
2014-Aug-27 20:30N 41°29' W 071°19'0 0.0
2014-Aug-27 19:33N 41°29' W 071°19'1 0.8
2014-Aug-27 18:33N 41°29' W 071°20'4 3.8
2014-Aug-27 17:33N 41°26' W 071°17'7 6.6
2014-Aug-27 16:33N 41°26' W 071°08'7 7.1
2014-Aug-27 15:33N 41°28' W 070°59'7 7.2
2014-Aug-27 14:33N 41°31' W 070°50'6 6.4
2014-Aug-27 13:33N 41°31' W 070°42'0 0.3
2014-Aug-27 12:31N 41°31' W 070°42'0 0.0
2014-Aug-27 11:30N 41°31' W 070°42'0 0.0
2014-Aug-27 10:34N 41°31' W 070°42'0 0.0
2014-Aug-27 09:34N 41°31' W 070°42'0 0.0
2014-Aug-27 08:31N 41°31' W 070°42'0 0.0
2014-Aug-27 07:34N 41°31' W 070°42'0 0.0
2014-Aug-27 06:34N 41°31' W 070°42'0 0.0
2014-Aug-27 05:33N 41°31' W 070°42'0 0.0
2014-Aug-27 04:34N 41°31' W 070°42'0 0.0
2014-Aug-27 03:34N 41°31' W 070°42'0 0.0
2014-Aug-27 02:33N 41°31' W 070°42'0 0.0
2014-Aug-27 01:32N 41°31' W 070°42'0 0.0
2014-Aug-27 00:33N 41°31' W 070°42'0 0.0
2014-Aug-26 23:31N 41°31' W 070°42'0 0.0
2014-Aug-26 22:31N 41°31' W 070°42'0 0.0
2014-Aug-26 21:31N 41°31' W 070°42'0 0.0
2014-Aug-26 20:31N 41°31' W 070°42'0 0.0
2014-Aug-26 19:28N 41°31' W 070°42'0 0.0
2014-Aug-26 18:31N 41°31' W 070°42'0 0.0
2014-Aug-26 17:28N 41°31' W 070°42'0 0.0
2014-Aug-26 16:25N 41°31' W 070°42'5 5.1
2014-Aug-26 15:24N 41°29' W 070°36'7 6.2
2014-Aug-26 14:13N 41°23' W 070°30'0 0.0
2014-Aug-26 13:28N 41°23' W 070°30'0 0.0
2014-Aug-26 11:31N 41°23' W 070°30'0 0.0
2014-Aug-26 10:25N 41°23' W 070°30'0 0.0
2014-Aug-26 09:31N 41°23' W 070°30'0 0.0
2014-Aug-26 08:31N 41°23' W 070°30'0 0.0
2014-Aug-26 07:31N 41°23' W 070°30'0 0.0
2014-Aug-26 06:31N 41°23' W 070°30'0 0.0
2014-Aug-26 05:25N 41°23' W 070°30'0 0.0
2014-Aug-26 03:28N 41°23' W 070°30'0 0.0
2014-Aug-26 02:31N 41°23' W 070°30'0 0.0
2014-Aug-26 01:31N 41°23' W 070°30'0 0.0
2014-Aug-26 00:31N 41°23' W 070°30'0 0.0
2014-Aug-25 23:31N 41°23' W 070°30'0 0.0
2014-Aug-25 22:31N 41°23' W 070°30'19 2.2
2014-Aug-25 14:05N 41°26' W 070°55'0 0.0
2014-Aug-25 13:29N 41°26' W 070°55'0 0.0
2014-Aug-25 12:20N 41°26' W 070°55'0 0.0
2014-Aug-25 11:32N 41°26' W 070°55'0 0.0
2014-Aug-25 10:32N 41°26' W 070°55'0 0.0
2014-Aug-25 09:32N 41°26' W 070°55'0 0.0
2014-Aug-25 08:32N 41°26' W 070°55'0 0.0
2014-Aug-25 07:32N 41°26' W 070°55'0 0.0
2014-Aug-25 06:32N 41°26' W 070°55'0 0.0
2014-Aug-25 05:17N 41°26' W 070°55'0 0.0
2014-Aug-25 04:29N 41°26' W 070°55'0 0.0
2014-Aug-25 03:32N 41°26' W 070°55'0 0.0
2014-Aug-25 02:26N 41°26' W 070°55'0 0.0
2014-Aug-25 01:32N 41°26' W 070°55'0 0.0
2014-Aug-25 00:32N 41°26' W 070°55'0 0.0
2014-Aug-24 23:20N 41°26' W 070°55'0 0.0
2014-Aug-24 22:32N 41°26' W 070°55'0 0.0
2014-Aug-24 20:25N 41°26' W 070°55'6 6.7
2014-Aug-24 19:33N 41°25' W 071°03'7 6.7
2014-Aug-24 18:33N 41°23' W 071°11'7 7.0
2014-Aug-24 17:33N 41°20' W 071°20'7 7.4
2014-Aug-24 16:33N 41°16' W 071°28'6 6.4
2014-Aug-24 15:33N 41°13' W 071°35'2 1.7
2014-Aug-24 14:30N 41°11' W 071°35'0 0.0
2014-Aug-24 13:33N 41°11' W 071°35'0 0.0
2014-Aug-24 12:33N 41°11' W 071°35'0 0.0
2014-Aug-24 11:33N 41°11' W 071°35'0 0.0
2014-Aug-24 10:33N 41°11' W 071°35'0 0.0
2014-Aug-24 09:33N 41°11' W 071°35'0 0.0
2014-Aug-24 08:33N 41°11' W 071°35'0 0.0
2014-Aug-24 07:33N 41°11' W 071°35'0 0.0
2014-Aug-24 06:33N 41°11' W 071°35'0 0.0
2014-Aug-24 05:33N 41°11' W 071°35'0 0.0
2014-Aug-24 04:33N 41°11' W 071°35'0 0.0
2014-Aug-24 03:33N 41°11' W 071°35'0 0.0
2014-Aug-24 02:33N 41°11' W 071°35'0 0.0
2014-Aug-24 01:33N 41°11' W 071°35'0 0.0
2014-Aug-24 00:33N 41°11' W 071°35'0 0.0
2014-Aug-23 23:33N 41°11' W 071°35'0 0.0
2014-Aug-23 22:33N 41°11' W 071°35'0 0.0
2014-Aug-23 21:33N 41°11' W 071°35'4 4.2
2014-Aug-23 20:33N 41°16' W 071°34'8 7.7
2014-Aug-23 19:33N 41°22' W 071°28'  
Track history (hours):
 
Tides and Currents Weather Stations Pressure Air Temp Water Temp Dewpoint Dewpoint Depression Visibility Wind Speed Wind Dir Waves Ship Positions

More Magic

Last reported at 2014-Sep-01 18:22 UTC. Time now 2014-Sep-21 20:14 UTC.
Position N 43°41' W 069°56'.
Warning: this ship's position is 20 days out of date.

Length 20 m.

Type: Sailing vessel. MMSI: 235082545.

Date/timePositionNaut miles runAvg speedWind from/ knotsBaromVisibWave heightAir tempDewpointWater temp
2014-Sep-01 18:22N 43°41' W 069°56'7 8.5
2014-Sep-01 17:33N 43°39' W 070°05'5 0.1
2014-Aug-31 02:04N 43°37' W 070°12'  
2014-Aug-28 07:22N 41°40' W 070°41'14 7.3
2014-Aug-28 05:31N 41°31' W 070°54'7 7.0
2014-Aug-28 04:33N 41°27' W 071°02'8 7.6
2014-Aug-28 03:33N 41°26' W 071°12'8 7.6
2014-Aug-28 02:33N 41°26' W 071°22'4 0.6
2014-Aug-27 20:30N 41°29' W 071°19'0 0.0
2014-Aug-27 19:33N 41°29' W 071°19'1 0.8
2014-Aug-27 18:33N 41°29' W 071°20'4 3.8
2014-Aug-27 17:33N 41°26' W 071°17'7 6.6
2014-Aug-27 16:33N 41°26' W 071°08'7 7.1
2014-Aug-27 15:33N 41°28' W 070°59'7 7.2
2014-Aug-27 14:33N 41°31' W 070°50'6 6.4
2014-Aug-27 13:33N 41°31' W 070°42'0 0.3
2014-Aug-27 12:31N 41°31' W 070°42'0 0.0
2014-Aug-27 11:30N 41°31' W 070°42'0 0.0
2014-Aug-27 10:34N 41°31' W 070°42'0 0.0
2014-Aug-27 09:34N 41°31' W 070°42'0 0.0
2014-Aug-27 08:31N 41°31' W 070°42'0 0.0
2014-Aug-27 07:34N 41°31' W 070°42'0 0.0
2014-Aug-27 06:34N 41°31' W 070°42'0 0.0
2014-Aug-27 05:33N 41°31' W 070°42'0 0.0
2014-Aug-27 04:34N 41°31' W 070°42'0 0.0
2014-Aug-27 03:34N 41°31' W 070°42'0 0.0
2014-Aug-27 02:33N 41°31' W 070°42'0 0.0
2014-Aug-27 01:32N 41°31' W 070°42'0 0.0
2014-Aug-27 00:33N 41°31' W 070°42'0 0.0
2014-Aug-26 23:31N 41°31' W 070°42'0 0.0
2014-Aug-26 22:31N 41°31' W 070°42'0 0.0
2014-Aug-26 21:31N 41°31' W 070°42'0 0.0
2014-Aug-26 20:31N 41°31' W 070°42'0 0.0
2014-Aug-26 19:28N 41°31' W 070°42'0 0.0
2014-Aug-26 18:31N 41°31' W 070°42'0 0.0
2014-Aug-26 17:28N 41°31' W 070°42'0 0.0
2014-Aug-26 16:25N 41°31' W 070°42'5 5.1
2014-Aug-26 15:24N 41°29' W 070°36'7 6.2
2014-Aug-26 14:13N 41°23' W 070°30'0 0.0
2014-Aug-26 13:28N 41°23' W 070°30'0 0.0
2014-Aug-26 11:31N 41°23' W 070°30'0 0.0
2014-Aug-26 10:25N 41°23' W 070°30'0 0.0
2014-Aug-26 09:31N 41°23' W 070°30'0 0.0
2014-Aug-26 08:31N 41°23' W 070°30'0 0.0
2014-Aug-26 07:31N 41°23' W 070°30'0 0.0
2014-Aug-26 06:31N 41°23' W 070°30'0 0.0
2014-Aug-26 05:25N 41°23' W 070°30'0 0.0
2014-Aug-26 03:28N 41°23' W 070°30'0 0.0
2014-Aug-26 02:31N 41°23' W 070°30'0 0.0
2014-Aug-26 01:31N 41°23' W 070°30'0 0.0
2014-Aug-26 00:31N 41°23' W 070°30'0 0.0
2014-Aug-25 23:31N 41°23' W 070°30'0 0.0
2014-Aug-25 22:31N 41°23' W 070°30'19 2.2
2014-Aug-25 14:05N 41°26' W 070°55'0 0.0
2014-Aug-25 13:29N 41°26' W 070°55'0 0.0
2014-Aug-25 12:20N 41°26' W 070°55'0 0.0
2014-Aug-25 11:32N 41°26' W 070°55'0 0.0
2014-Aug-25 10:32N 41°26' W 070°55'0 0.0
2014-Aug-25 09:32N 41°26' W 070°55'0 0.0
2014-Aug-25 08:32N 41°26' W 070°55'0 0.0
2014-Aug-25 07:32N 41°26' W 070°55'0 0.0
2014-Aug-25 06:32N 41°26' W 070°55'0 0.0
2014-Aug-25 05:17N 41°26' W 070°55'0 0.0
2014-Aug-25 04:29N 41°26' W 070°55'0 0.0
2014-Aug-25 03:32N 41°26' W 070°55'0 0.0
2014-Aug-25 02:26N 41°26' W 070°55'0 0.0
2014-Aug-25 01:32N 41°26' W 070°55'0 0.0
2014-Aug-25 00:32N 41°26' W 070°55'0 0.0
2014-Aug-24 23:20N 41°26' W 070°55'0 0.0
2014-Aug-24 22:32N 41°26' W 070°55'0 0.0
2014-Aug-24 20:25N 41°26' W 070°55'6 6.7
2014-Aug-24 19:33N 41°25' W 071°03'7 6.7
2014-Aug-24 18:33N 41°23' W 071°11'7 7.0
2014-Aug-24 17:33N 41°20' W 071°20'7 7.4
2014-Aug-24 16:33N 41°16' W 071°28'6 6.4
2014-Aug-24 15:33N 41°13' W 071°35'2 1.7
2014-Aug-24 14:30N 41°11' W 071°35'0 0.0
2014-Aug-24 13:33N 41°11' W 071°35'0 0.0
2014-Aug-24 12:33N 41°11' W 071°35'0 0.0
2014-Aug-24 11:33N 41°11' W 071°35'0 0.0
2014-Aug-24 10:33N 41°11' W 071°35'0 0.0
2014-Aug-24 09:33N 41°11' W 071°35'0 0.0
2014-Aug-24 08:33N 41°11' W 071°35'0 0.0
2014-Aug-24 07:33N 41°11' W 071°35'0 0.0
2014-Aug-24 06:33N 41°11' W 071°35'0 0.0
2014-Aug-24 05:33N 41°11' W 071°35'0 0.0
2014-Aug-24 04:33N 41°11' W 071°35'0 0.0
2014-Aug-24 03:33N 41°11' W 071°35'0 0.0
2014-Aug-24 02:33N 41°11' W 071°35'0 0.0
2014-Aug-24 01:33N 41°11' W 071°35'0 0.0
2014-Aug-24 00:33N 41°11' W 071°35'0 0.0
2014-Aug-23 23:33N 41°11' W 071°35'0 0.0
2014-Aug-23 22:33N 41°11' W 071°35'0 0.0
2014-Aug-23 21:33N 41°11' W 071°35'4 4.2
2014-Aug-23 20:33N 41°16' W 071°34'8 7.7
2014-Aug-23 19:33N 41°22' W 071°28'  

Dump ship's entire track history